Time;durP1;ratioP1;P1;durP2;ratioP2;P2;SDS_P1;SDS_P2;PMS_P1;PMS_P2;Temp;Humidity;BMP_temperature;BMP_pressure;BME280_temperature;BME280_humidity;BME280_pressure;Samples;Min_cycle;Max_cycle;Signal;HPM_P1;HPM_P2
2020/12/11 00:01:07;;;;;;;16.00;12.23;;;;;;;1.17;70.58;97732.28;5090576;28;20052;-70
2020/12/11 00:03:34;;;;;;;13.73;11.30;;;;;;;1.22;70.69;97731.81;5090156;28;20497;-70
2020/12/11 00:06:00;;;;;;;14.85;11.88;;;;;;;1.28;70.55;97733.78;5091666;28;20044;-70
2020/12/11 00:08:27;;;;;;;12.80;11.18;;;;;;;1.20;70.47;97723.38;5091804;28;20386;-70
2020/12/11 00:10:54;;;;;;;13.55;11.00;;;;;;;1.16;70.63;97714.25;5090638;28;20048;-70
2020/12/11 00:13:21;;;;;;;14.05;10.98;;;;;;;1.11;70.58;97714.72;5094725;28;20043;-70
2020/12/11 00:15:49;;;;;;;15.15;11.45;;;;;;;1.08;70.60;97709.03;5095744;28;20087;-70
2020/12/11 00:18:16;;;;;;;16.38;12.38;;;;;;;1.00;70.78;97715.00;5094451;28;20461;-70
2020/12/11 00:20:42;;;;;;;16.15;12.02;;;;;;;0.98;70.91;97715.19;5094413;28;20499;-71
2020/12/11 00:23:09;;;;;;;19.55;13.73;;;;;;;1.01;70.97;97708.03;5094329;28;20044;-73
2020/12/11 00:25:36;;;;;;;26.90;15.40;;;;;;;1.11;71.11;97713.91;5093971;28;20048;-73
2020/12/11 00:28:02;;;;;;;28.77;15.38;;;;;;;1.12;70.44;97708.53;5095276;28;20141;-73
2020/12/11 00:30:29;;;;;;;30.73;15.30;;;;;;;1.10;70.52;97688.84;5095302;28;20047;-73
2020/12/11 00:32:57;;;;;;;25.65;14.95;;;;;;;1.06;70.42;97684.94;5095403;28;20047;-73
2020/12/11 00:35:23;;;;;;;27.73;14.80;;;;;;;1.07;70.94;97690.00;5095068;28;20497;-73
2020/12/11 00:37:54;;;;;;;29.42;17.40;;;;;;;1.19;71.06;97688.72;5095497;28;20089;-73
2020/12/11 00:40:21;;;;;;;38.95;20.13;;;;;;;1.28;70.89;97675.72;5095385;28;20485;-73
2020/12/11 00:42:48;;;;;;;42.30;22.65;;;;;;;1.29;70.57;97664.31;5095312;28;20047;-72
2020/12/11 00:45:14;;;;;;;48.83;27.42;;;;;;;1.18;70.31;97655.84;5096134;28;20401;-73
2020/12/11 00:47:41;;;;;;;45.42;26.13;;;;;;;1.13;70.58;97665.91;5095251;28;20461;-73
2020/12/11 00:50:09;;;;;;;34.92;20.85;;;;;;;1.13;70.81;97668.50;5096487;28;20383;-73
2020/12/11 00:52:35;;;;;;;34.80;20.65;;;;;;;1.19;70.71;97665.28;5099249;28;20043;-73
2020/12/11 00:55:03;;;;;;;36.72;22.67;;;;;;;1.21;70.58;97667.72;5098486;28;20044;-73
2020/12/11 00:57:29;;;;;;;47.40;26.10;;;;;;;1.17;70.24;97663.81;5100951;28;20052;-73
2020/12/11 00:59:56;;;;;;;50.40;27.55;;;;;;;1.06;70.25;97666.72;5108570;28;20051;-72
2020/12/11 01:02:23;;;;;;;39.33;22.67;;;;;;;1.08;70.79;97670.78;5107459;28;20224;-73
2020/12/11 01:04:50;;;;;;;18.90;12.90;;;;;;;1.07;70.47;97661.38;5106493;28;20515;-72
2020/12/11 01:07:17;;;;;;;19.92;13.23;;;;;;;1.04;70.38;97642.66;5095816;28;20558;-73
2020/12/11 01:09:44;;;;;;;18.33;12.63;;;;;;;0.96;70.73;97638.25;5095141;28;20505;-73
2020/12/11 01:12:10;;;;;;;29.70;20.15;;;;;;;0.93;70.50;97630.75;5094826;28;20048;-73
2020/12/11 01:14:37;;;;;;;16.48;13.23;;;;;;;0.90;70.66;97637.09;5093574;28;20064;-73
2020/12/11 01:17:04;;;;;;;17.35;11.85;;;;;;;0.96;71.14;97639.03;5094897;28;20119;-73
2020/12/11 01:19:31;;;;;;;19.90;12.70;;;;;;;1.04;70.85;97633.03;5093385;28;20139;-72
2020/12/11 01:21:57;;;;;;;17.35;12.20;;;;;;;1.01;70.60;97632.53;5094980;28;20067;-72
2020/12/11 01:24:25;;;;;;;16.35;11.52;;;;;;;0.92;70.51;97639.53;5092879;28;20056;-72
2020/12/11 01:26:51;;;;;;;16.48;11.85;;;;;;;0.86;70.54;97634.97;5094974;28;20044;-73
2020/12/11 01:29:18;;;;;;;14.07;10.93;;;;;;;0.85;70.74;97628.94;5094492;28;20130;-73
2020/12/11 01:31:45;;;;;;;15.00;10.90;;;;;;;0.91;70.93;97628.31;5093428;28;20044;-73
2020/12/11 01:34:11;;;;;;;16.42;11.15;;;;;;;0.98;70.94;97628.50;5094089;28;20044;-73
2020/12/11 01:36:38;;;;;;;13.18;10.60;;;;;;;0.97;70.43;97627.66;5092987;28;20501;-72
2020/12/11 01:39:05;;;;;;;16.48;11.13;;;;;;;0.83;70.84;97617.06;5094367;28;20504;-73
2020/12/11 01:41:33;;;;;;;14.60;11.27;;;;;;;0.88;70.94;97610.41;5093558;28;20151;-73
2020/12/11 01:44:06;;;;;;;14.90;11.13;;;;;;;0.92;71.22;97603.91;5092905;28;20047;-72
2020/12/11 01:46:37;;;;;;;14.57;10.50;;;;;;;0.99;70.92;97593.69;5092846;28;20413;-73
2020/12/11 01:49:04;;;;;;;13.57;10.82;;;;;;;1.01;70.77;97590.91;5094825;28;20113;-73
2020/12/11 01:51:32;;;;;;;14.25;10.73;;;;;;;1.01;70.66;97588.31;5093972;28;20501;-73
2020/12/11 01:53:59;;;;;;;12.10;9.95;;;;;;;0.93;70.30;97576.91;5093861;28;20036;-73
2020/12/11 01:56:30;;;;;;;15.55;10.98;;;;;;;0.96;70.94;97583.59;5093900;28;20040;-73
2020/12/11 01:59:01;;;;;;;13.60;10.68;;;;;;;1.06;71.08;97588.63;5093922;28;20055;-73
2020/12/11 02:01:28;;;;;;;18.08;12.10;;;;;;;1.19;70.93;97591.59;5092528;28;20414;-72
2020/12/11 02:03:56;;;;;;;13.68;10.07;;;;;;;1.26;70.82;97604.75;5093660;28;20090;-73
2020/12/11 02:06:22;;;;;;;13.18;10.35;;;;;;;1.38;70.78;97588.63;5094210;28;20044;-71
2020/12/11 02:08:54;;;;;;;14.80;11.35;;;;;;;1.52;70.63;97588.97;5092892;28;20409;-71
2020/12/11 02:11:22;;;;;;;15.23;10.88;;;;;;;1.59;70.40;97579.47;5093862;28;20412;-71
2020/12/11 02:13:49;;;;;;;17.60;12.38;;;;;;;1.57;69.46;97565.81;5092526;28;20047;-71
2020/12/11 02:16:21;;;;;;;17.48;10.70;;;;;;;1.43;69.70;97559.50;5097100;28;20044;-71
2020/12/11 02:18:48;;;;;;;14.70;11.15;;;;;;;1.35;69.63;97551.72;5113785;28;20048;-71
2020/12/11 02:21:15;;;;;;;15.23;11.15;;;;;;;1.20;69.94;97543.75;5100866;28;20048;-71
2020/12/11 02:23:43;;;;;;;14.93;10.40;;;;;;;1.18;70.36;97546.53;5093458;28;20040;-71
2020/12/11 02:26:10;;;;;;;13.65;10.85;;;;;;;1.14;70.51;97547.81;5094916;28;20040;-71
2020/12/11 02:28:37;;;;;;;14.20;10.63;;;;;;;1.19;70.77;97547.31;5094037;28;20052;-71
2020/12/11 02:31:04;;;;;;;15.38;11.80;;;;;;;1.26;70.41;97548.28;5093425;28;20048;-71
2020/12/11 02:33:31;;;;;;;16.35;11.05;;;;;;;1.22;70.31;97541.78;5093075;28;20071;-71
2020/12/11 02:35:58;;;;;;;13.60;10.90;;;;;;;1.24;70.72;97547.63;5092585;28;20477;-71
2020/12/11 02:38:24;;;;;;;16.90;11.82;;;;;;;1.37;70.52;97552.34;5093421;28;20040;-71
2020/12/11 02:40:55;;;;;;;16.23;11.82;;;;;;;1.32;70.01;97547.63;5093134;28;20047;-71
2020/12/11 02:43:22;;;;;;;16.08;11.73;;;;;;;1.28;70.29;97546.34;5091797;28;20077;-71
2020/12/11 02:45:52;;;;;;;15.27;11.25;;;;;;;1.30;70.09;97535.75;5093268;28;20040;-71
2020/12/11 02:48:20;;;;;;;12.65;10.50;;;;;;;1.28;70.04;97537.72;5093418;28;20433;-71
2020/12/11 02:50:47;;;;;;;13.20;10.57;;;;;;;1.26;69.97;97526.63;5092919;28;20040;-71
2020/12/11 02:53:14;;;;;;;16.23;11.07;;;;;;;1.25;70.12;97512.81;5092868;28;20048;-71
2020/12/11 02:55:40;;;;;;;13.93;10.90;;;;;;;1.23;70.20;97504.38;5092607;28;20460;-71
2020/12/11 02:58:08;;;;;;;14.13;10.43;;;;;;;1.26;70.43;97498.81;5092771;28;20036;-71
2020/12/11 03:00:35;;;;;;;15.55;12.02;;;;;;;1.35;70.25;97484.00;5092634;28;20497;-71
2020/12/11 03:03:01;;;;;;;13.75;11.07;;;;;;;1.38;70.15;97471.44;5092677;28;20482;-71
2020/12/11 03:05:28;;;;;;;15.77;11.70;;;;;;;1.39;69.99;97457.47;5092217;28;20044;-71
2020/12/11 03:07:55;;;;;;;17.00;12.32;;;;;;;1.37;69.81;97449.00;5091152;28;20498;-71
2020/12/11 03:10:21;;;;;;;14.18;11.07;;;;;;;1.39;69.91;97443.63;5091128;28;20044;-72
2020/12/11 03:12:48;;;;;;;15.20;10.93;;;;;;;1.45;70.15;97448.16;5091061;28;20058;-71
2020/12/11 03:15:17;;;;;;;14.23;10.35;;;;;;;1.49;69.77;97445.06;5092087;28;20098;-72
2020/12/11 03:17:44;;;;;;;14.60;11.23;;;;;;;1.49;69.79;97432.03;5092233;28;20101;-72
2020/12/11 03:20:11;;;;;;;15.98;11.73;;;;;;;1.51;69.38;97428.44;5091030;28;20055;-72
2020/12/11 03:22:37;;;;;;;15.18;11.15;;;;;;;1.50;69.55;97419.81;5092288;28;20511;-72
2020/12/11 03:25:04;;;;;;;14.68;11.40;;;;;;;1.50;69.41;97417.22;5091759;28;20044;-71
2020/12/11 03:27:31;;;;;;;13.82;10.70;;;;;;;1.53;69.50;97423.88;5092214;28;20109;-71
2020/12/11 03:29:58;;;;;;;13.00;10.57;;;;;;;1.57;69.41;97423.38;5092231;28;20054;-71
2020/12/11 03:32:25;;;;;;;14.35;11.20;;;;;;;1.58;69.34;97418.97;5092083;28;20432;-71
2020/12/11 03:34:52;;;;;;;14.63;10.80;;;;;;;1.61;69.24;97429.88;5091659;28;20413;-71
2020/12/11 03:37:19;;;;;;;14.50;10.93;;;;;;;1.67;69.14;97438.78;5090828;28;20072;-71
2020/12/11 03:39:46;;;;;;;15.02;10.23;;;;;;;1.69;69.21;97429.84;5090640;28;20055;-71
2020/12/11 03:42:12;;;;;;;15.75;11.68;;;;;;;1.66;68.98;97422.34;5092082;28;20413;-71
2020/12/11 03:44:39;;;;;;;13.80;10.93;;;;;;;1.66;69.11;97426.75;5091899;28;20043;-71
2020/12/11 03:47:06;;;;;;;16.10;11.80;;;;;;;1.64;69.03;97423.53;5094633;28;20040;-71
2020/12/11 03:49:33;;;;;;;16.42;11.45;;;;;;;1.67;69.03;97426.59;5095085;28;20048;-71
2020/12/11 03:52:00;;;;;;;16.60;11.43;;;;;;;1.71;69.01;97414.84;5096189;28;20055;-71
2020/12/11 03:54:27;;;;;;;15.77;11.07;;;;;;;1.71;68.79;97417.47;5095560;28;20048;-71
2020/12/11 03:56:53;;;;;;;14.43;11.02;;;;;;;1.71;68.93;97409.66;5096314;28;20051;-71
2020/12/11 03:59:20;;;;;;;14.95;11.25;;;;;;;1.72;68.95;97408.66;5096170;28;20097;-71
2020/12/11 04:01:48;;;;;;;15.15;10.95;;;;;;;1.70;68.94;97407.19;5095963;28;20051;-71
2020/12/11 04:04:15;;;;;;;14.32;10.82;;;;;;;1.77;69.09;97405.53;5095529;28;20044;-70
2020/12/11 04:06:42;;;;;;;14.95;11.27;;;;;;;1.86;68.97;97407.09;5095890;28;20051;-70
2020/12/11 04:09:09;;;;;;;15.75;11.32;;;;;;;1.83;68.79;97398.81;5095699;28;20048;-70
2020/12/11 04:11:36;;;;;;;13.65;11.38;;;;;;;1.81;68.38;97390.38;5095842;28;20493;-70
2020/12/11 04:14:02;;;;;;;14.65;11.38;;;;;;;1.75;68.55;97381.44;5095342;28;20087;-70
2020/12/11 04:16:29;;;;;;;13.65;10.77;;;;;;;1.72;68.32;97377.41;5096031;28;20393;-70
2020/12/11 04:18:56;;;;;;;14.88;10.73;;;;;;;1.64;68.45;97380.03;5095835;28;20134;-70
2020/12/11 04:21:23;;;;;;;16.15;12.00;;;;;;;1.64;68.85;97374.03;5095794;28;20509;-70
2020/12/11 04:23:50;;;;;;;14.32;11.15;;;;;;;1.64;69.02;97380.03;5095303;28;20040;-71
2020/12/11 04:26:17;;;;;;;14.55;10.80;;;;;;;1.71;69.35;97375.78;5095600;28;20036;-72
2020/12/11 04:28:44;;;;;;;14.75;10.98;;;;;;;1.71;69.13;97362.75;5095378;28;20052;-71
2020/12/11 04:31:11;;;;;;;15.43;11.13;;;;;;;1.73;69.24;97362.56;5094225;28;20052;-70
2020/12/11 04:33:38;;;;;;;16.23;12.80;;;;;;;1.79;69.18;97367.06;5095181;28;20040;-72
2020/12/11 04:36:05;;;;;;;14.63;11.15;;;;;;;1.76;68.73;97357.03;5094044;28;20048;-71
2020/12/11 04:38:32;;;;;;;13.30;10.43;;;;;;;1.80;69.07;97352.28;5095556;28;20044;-71
2020/12/11 04:41:02;;;;;;;14.23;11.45;;;;;;;1.80;68.93;97347.06;5095522;28;20040;-71
2020/12/11 04:43:28;;;;;;;14.93;11.95;;;;;;;1.80;68.96;97353.09;5093916;28;20168;-71
2020/12/11 04:45:55;;;;;;;17.05;11.40;;;;;;;1.74;68.78;97333.72;5095286;28;20044;-72
2020/12/11 04:48:23;;;;;;;16.65;12.35;;;;;;;1.76;68.93;97328.38;5095190;28;20119;-71
2020/12/11 04:51:06;;;;;;;14.10;11.15;;;;;;;1.72;68.61;97317.47;5093965;28;20048;-70
2020/12/11 04:53:35;;;;;;;17.20;12.43;;;;;;;1.63;68.60;97313.31;5094735;28;20040;-70
2020/12/11 04:56:04;;;;;;;15.38;11.93;;;;;;;1.55;68.82;97308.16;5093595;28;20517;-71
2020/12/11 04:58:32;;;;;;;15.20;11.57;;;;;;;1.52;68.97;97307.69;5093215;28;20044;-71
2020/12/11 05:01:03;;;;;;;16.55;11.80;;;;;;;1.49;68.96;97307.03;5094942;28;20078;-72
2020/12/11 05:03:35;;;;;;;17.30;12.52;;;;;;;1.45;69.20;97308.34;5093608;28;20142;-71
2020/12/11 05:06:03;;;;;;;15.90;12.13;;;;;;;1.49;69.32;97301.81;5094752;28;20074;-71
2020/12/11 05:08:29;;;;;;;17.67;11.98;;;;;;;1.53;69.35;97296.25;5095476;28;20097;-71
2020/12/11 05:10:56;;;;;;;17.60;13.00;;;;;;;1.57;69.54;97289.72;5094061;28;20055;-71
2020/12/11 05:13:25;;;;;;;16.35;12.75;;;;;;;1.54;69.27;97288.28;5094466;28;20402;-71
2020/12/11 05:16:10;;;;;;;17.75;12.60;;;;;;;1.54;69.40;97290.88;5094871;28;20044;-71
2020/12/11 05:18:38;;;;;;;17.88;12.65;;;;;;;1.56;69.62;97288.94;5093642;28;20102;-71
2020/12/11 05:21:19;;;;;;;18.52;12.98;;;;;;;1.63;69.25;97279.44;5094490;28;20048;-72
2020/12/11 05:23:57;;;;;;;17.92;13.00;;;;;;;1.65;69.07;97281.88;5094285;28;20378;-72
2020/12/11 05:26:23;;;;;;;18.40;13.38;;;;;;;1.62;69.19;97277.00;5093153;28;20052;-71
2020/12/11 05:28:51;;;;;;;20.25;14.20;;;;;;;1.64;69.29;97275.03;5094297;28;20676;-71
2020/12/11 05:31:18;;;;;;;17.35;13.25;;;;;;;1.65;69.09;97274.84;5094645;28;20044;-71
2020/12/11 05:34:01;;;;;;;16.98;12.68;;;;;;;1.65;69.24;97271.44;5094077;28;20063;-71
2020/12/11 05:36:28;;;;;;;18.35;12.85;;;;;;;1.69;69.19;97263.09;5094094;28;20040;-71
2020/12/11 05:38:55;;;;;;;21.13;14.15;;;;;;;1.68;68.91;97263.28;5093228;28;20052;-72
2020/12/11 05:41:31;;;;;;;20.73;14.40;;;;;;;1.70;69.33;97253.50;5094196;28;20058;-72
2020/12/11 05:43:59;;;;;;;21.33;13.60;;;;;;;1.75;69.21;97240.75;5094258;28;20528;-71
2020/12/11 05:46:30;;;;;;;18.27;13.63;;;;;;;1.74;69.02;97245.16;5092967;28;20048;-71
2020/12/11 05:48:58;;;;;;;20.85;14.18;;;;;;;1.73;69.06;97242.72;5094472;28;20493;-71
2020/12/11 05:51:34;;;;;;;17.67;13.27;;;;;;;1.72;69.03;97235.91;5093942;28;20048;-71
2020/12/11 05:54:04;;;;;;;20.23;13.77;;;;;;;1.75;69.02;97235.53;5093660;28;20036;-71
2020/12/11 05:56:32;;;;;;;19.70;13.68;;;;;;;1.78;68.93;97242.19;5092458;28;20413;-71
2020/12/11 05:59:01;;;;;;;22.15;13.88;;;;;;;1.76;68.80;97229.34;5092403;28;20051;-71
2020/12/11 06:01:28;;;;;;;18.70;13.93;;;;;;;1.69;68.95;97223.22;5092176;28;20069;-72
2020/12/11 06:03:56;;;;;;;24.42;14.32;;;;;;;1.68;68.97;97225.03;5092077;28;20039;-71
2020/12/11 06:06:24;;;;;;;22.48;14.88;;;;;;;1.70;69.27;97217.81;5093571;28;20052;-71
2020/12/11 06:08:53;;;;;;;19.02;13.80;;;;;;;1.76;69.11;97210.31;5093457;28;20043;-72
2020/12/11 06:11:22;;;;;;;19.52;13.30;;;;;;;1.79;69.17;97208.13;5092809;28;20040;-72
2020/12/11 06:13:52;;;;;;;18.98;13.07;;;;;;;1.75;68.89;97204.28;5093030;28;20047;-72
2020/12/11 06:16:22;;;;;;;20.10;13.73;;;;;;;1.73;68.91;97193.22;5093412;28;20118;-71
2020/12/11 06:18:59;;;;;;;23.08;14.43;;;;;;;1.79;69.14;97197.72;5093234;28;20075;-71
2020/12/11 06:21:27;;;;;;;19.67;14.63;;;;;;;1.82;68.67;97196.56;5093379;28;20177;-71
2020/12/11 06:23:54;;;;;;;19.05;14.05;;;;;;;1.81;69.03;97195.75;5091575;28;20428;-72
2020/12/11 06:26:21;;;;;;;19.65;13.93;;;;;;;1.88;69.05;97196.69;5091731;28;20122;-72
2020/12/11 06:28:49;;;;;;;17.77;12.95;;;;;;;1.99;69.25;97188.41;5093000;28;20401;-71
2020/12/11 06:31:18;;;;;;;19.02;14.00;;;;;;;2.11;68.94;97172.34;5093260;28;20036;-72
2020/12/11 06:33:48;;;;;;;21.20;14.10;;;;;;;2.18;68.60;97176.66;5092608;28;20093;-70
2020/12/11 06:36:15;;;;;;;17.50;13.10;;;;;;;2.17;67.87;97177.66;5093060;28;20048;-70
2020/12/11 06:38:45;;;;;;;18.83;13.35;;;;;;;2.21;68.12;97176.31;5093036;28;20047;-70
2020/12/11 06:41:13;;;;;;;18.42;13.70;;;;;;;2.29;68.06;97177.22;5092937;28;20493;-70
2020/12/11 06:43:42;;;;;;;17.05;12.95;;;;;;;2.29;67.81;97174.63;5095363;28;20051;-70
2020/12/11 06:46:13;;;;;;;17.98;12.95;;;;;;;2.28;67.43;97176.41;5106042;28;20044;-71
2020/12/11 06:49:07;;;;;;;20.15;14.52;;;;;;;2.33;67.50;97181.09;5097378;28;20044;-71
2020/12/11 06:51:35;;;;;;;18.27;12.65;;;;;;;2.33;67.06;97176.69;5093726;28;20040;-70
2020/12/11 06:54:02;;;;;;;15.93;12.18;;;;;;;2.38;67.41;97176.13;5093204;28;20040;-70
2020/12/11 06:56:42;;;;;;;15.35;12.30;;;;;;;2.41;67.27;97181.81;5091882;28;20135;-69
2020/12/11 06:59:19;;;;;;;15.88;11.52;;;;;;;2.48;67.63;97172.25;5093248;28;20040;-72
2020/12/11 07:01:46;;;;;;;17.40;11.80;;;;;;;2.58;67.09;97171.19;5091998;28;20060;-72
2020/12/11 07:04:14;;;;;;;16.48;11.63;;;;;;;2.57;67.09;97178.22;5092497;28;20115;-72
2020/12/11 07:06:47;;;;;;;16.90;11.98;;;;;;;2.64;67.12;97173.84;5091026;28;20486;-72
2020/12/11 07:09:14;;;;;;;15.32;11.00;;;;;;;2.65;66.98;97174.66;5092531;28;20036;-72
2020/12/11 07:11:42;;;;;;;15.88;11.63;;;;;;;2.68;66.85;97180.31;5092416;28;20040;-72
2020/12/11 07:14:09;;;;;;;15.00;11.20;;;;;;;2.68;66.86;97175.09;5090699;28;20044;-72
2020/12/11 07:16:38;;;;;;;15.00;10.90;;;;;;;2.70;66.90;97177.56;5090874;28;20048;-72
2020/12/11 07:19:05;;;;;;;14.43;11.35;;;;;;;2.67;67.04;97177.91;5090775;28;20146;-72
2020/12/11 07:21:33;;;;;;;17.92;11.32;;;;;;;2.62;66.55;97172.44;5090646;28;20048;-72
2020/12/11 07:24:00;;;;;;;14.65;11.25;;;;;;;2.63;66.89;97176.66;5091817;28;20044;-70
2020/12/11 07:26:27;;;;;;;28.10;12.35;;;;;;;2.58;66.91;97172.00;5092128;28;20044;-70
2020/12/11 07:29:05;;;;;;;15.93;11.55;;;;;;;2.60;67.32;97162.16;5091972;28;20047;-72
2020/12/11 07:31:35;;;;;;;18.52;13.52;;;;;;;2.59;67.38;97157.13;5091039;28;20048;-72
2020/12/11 07:34:11;;;;;;;26.13;16.88;;;;;;;2.61;67.65;97157.75;5091486;28;20036;-72
2020/12/11 07:36:39;;;;;;;17.35;12.18;;;;;;;2.56;67.73;97160.09;5091885;28;20516;-72
2020/12/11 07:39:12;;;;;;;18.20;12.05;;;;;;;2.63;68.07;97155.78;5092162;28;20101;-72
2020/12/11 07:41:42;;;;;;;14.73;11.40;;;;;;;2.68;67.96;97149.03;5091966;28;20054;-73
2020/12/11 07:44:09;;;;;;;13.73;10.35;;;;;;;2.70;67.85;97149.66;5091712;28;20036;-72
2020/12/11 07:46:37;;;;;;;15.82;11.32;;;;;;;2.69;67.82;97142.84;5091801;28;20123;-72
2020/12/11 07:49:04;;;;;;;12.00;8.88;;;;;;;2.69;67.74;97142.00;5091741;28;20072;-72
2020/12/11 07:51:31;;;;;;;14.27;11.13;;;;;;;2.59;67.90;97146.72;5092485;28;20048;-72
2020/12/11 07:53:59;;;;;;;13.10;9.30;;;;;;;2.57;68.03;97135.63;5092414;28;20044;-72
2020/12/11 07:56:26;;;;;;;13.63;9.63;;;;;;;2.57;68.26;97135.63;5091791;28;20063;-72
2020/12/11 07:58:53;;;;;;;13.73;9.70;;;;;;;2.61;68.29;97134.28;5091677;28;20424;-72
2020/12/11 08:01:19;;;;;;;13.07;10.50;;;;;;;2.71;68.56;97130.41;5091822;28;20044;-72
2020/12/11 08:03:46;;;;;;;12.35;8.75;;;;;;;2.82;68.55;97128.31;5090118;28;20449;-73
2020/12/11 08:06:13;;;;;;;11.23;8.40;;;;;;;2.94;68.57;97129.44;5090465;28;20123;-72
2020/12/11 08:08:40;;;;;;;11.73;9.55;;;;;;;3.05;68.21;97125.53;5092082;28;20055;-72
2020/12/11 08:11:23;;;;;;;13.23;9.70;;;;;;;3.09;67.89;97129.38;5091575;28;20050;-72
2020/12/11 08:13:59;;;;;;;19.27;12.38;;;;;;;3.08;67.42;97120.75;5091157;28;20044;-72
2020/12/11 08:16:28;;;;;;;14.07;10.15;;;;;;;3.04;67.08;97122.09;5091499;28;20044;-72
2020/12/11 08:18:55;;;;;;;11.98;9.68;;;;;;;2.99;67.02;97116.66;5091498;28;20048;-72
2020/12/11 08:21:28;;;;;;;16.75;11.00;;;;;;;3.01;68.08;97117.25;5090330;28;20063;-72
2020/12/11 08:23:55;;;;;;;15.40;11.40;;;;;;;3.12;67.70;97123.78;5091364;28;20062;-72
2020/12/11 08:26:24;;;;;;;14.07;9.85;;;;;;;3.15;67.45;97116.41;5091549;28;20052;-72
2020/12/11 08:29:03;;;;;;;11.45;9.55;;;;;;;3.25;67.75;97110.03;5091537;28;20051;-72
2020/12/11 08:31:37;;;;;;;12.57;9.75;;;;;;;3.31;67.77;97107.50;5091480;28;20066;-72
2020/12/11 08:34:06;;;;;;;11.57;9.23;;;;;;;3.39;67.55;97106.56;5092168;28;20052;-72
2020/12/11 08:36:34;;;;;;;11.55;8.55;;;;;;;3.41;67.06;97109.78;5095221;28;20047;-72
2020/12/11 08:39:15;;;;;;;11.90;8.45;;;;;;;3.44;66.70;97112.03;5095260;28;20047;-72
2020/12/11 08:41:59;;;;;;;8.82;7.22;;;;;;;3.50;66.96;97106.03;5095270;28;20044;-72
2020/12/11 08:44:37;;;;;;;9.30;7.30;;;;;;;3.52;66.67;97105.88;5093389;28;20055;-72
2020/12/11 08:47:19;;;;;;;12.07;6.93;;;;;;;3.58;66.45;97099.88;5093926;28;20485;-72
2020/12/11 08:49:50;;;;;;;7.68;6.32;;;;;;;3.60;66.37;97093.47;5094068;28;20048;-72
2020/12/11 08:52:17;;;;;;;9.27;6.28;;;;;;;3.64;66.07;97093.91;5093878;28;20048;-72
2020/12/11 08:54:44;;;;;;;8.35;6.43;;;;;;;3.72;66.86;97091.94;5094659;28;20040;-72
2020/12/11 08:57:11;;;;;;;9.43;6.82;;;;;;;3.92;66.58;97094.69;5095071;28;20044;-72
2020/12/11 08:59:38;;;;;;;9.02;7.15;;;;;;;3.98;66.20;97093.91;5095230;28;20040;-72
2020/12/11 09:02:04;;;;;;;11.68;8.02;;;;;;;3.99;65.71;97092.09;5094768;28;20039;-72
2020/12/11 09:04:32;;;;;;;9.57;7.57;;;;;;;3.94;65.67;97091.88;5093094;28;20048;-72
2020/12/11 09:06:59;;;;;;;11.38;8.07;;;;;;;3.91;65.63;97090.44;5093827;28;20051;-72
2020/12/11 09:09:26;;;;;;;10.73;7.63;;;;;;;3.98;66.09;97090.50;5094754;28;20044;-72
2020/12/11 09:11:52;;;;;;;14.43;9.23;;;;;;;4.11;66.00;97090.56;5094544;28;20044;-72
2020/12/11 09:14:20;;;;;;;9.27;6.80;;;;;;;4.09;65.77;97095.19;5093065;28;20515;-72
2020/12/11 09:16:47;;;;;;;6.82;5.70;;;;;;;4.02;65.35;97089.09;5094305;28;20047;-72
2020/12/11 09:19:14;;;;;;;6.97;5.95;;;;;;;4.04;65.68;97091.50;5093002;28;20700;-72
2020/12/11 09:21:41;;;;;;;8.18;6.50;;;;;;;4.03;65.53;97095.94;5094358;28;20470;-72
2020/12/11 09:24:09;;;;;;;7.85;5.13;;;;;;;4.01;65.74;97092.72;5093864;28;20425;-72
2020/12/11 09:26:36;;;;;;;7.20;5.63;;;;;;;3.94;65.49;97091.88;5094220;28;20044;-72
2020/12/11 09:29:10;;;;;;;6.68;5.57;;;;;;;3.95;65.99;97103.94;5094010;28;20516;-72
2020/12/11 09:31:39;;;;;;;6.32;5.65;;;;;;;4.01;65.51;97100.56;5092740;28;20040;-73
2020/12/11 09:34:05;;;;;;;6.88;5.03;;;;;;;4.11;66.05;97093.16;5092277;28;20134;-72
2020/12/11 09:36:33;;;;;;;7.20;5.47;;;;;;;4.28;65.84;97093.66;5094100;28;20047;-73
2020/12/11 09:39:00;;;;;;;6.65;5.35;;;;;;;4.35;65.54;97089.25;5094110;28;20119;-75
2020/12/11 09:41:29;;;;;;;7.25;5.60;;;;;;;4.34;65.31;97082.41;5093880;28;20043;-72
2020/12/11 09:44:14;;;;;;;7.47;5.60;;;;;;;4.44;65.68;97084.66;5093645;28;20581;-73
2020/12/11 09:46:46;;;;;;;8.10;5.90;;;;;;;4.64;65.42;97079.50;5093701;28;20044;-73
2020/12/11 09:49:14;;;;;;;6.70;5.43;;;;;;;4.67;64.92;97082.53;5092639;28;20075;-72
2020/12/11 09:51:57;;;;;;;8.45;5.97;;;;;;;4.70;65.06;97076.91;5092488;28;20032;-73
2020/12/11 09:54:25;;;;;;;12.87;6.20;;;;;;;4.70;64.72;97070.88;5092090;28;20041;-72
2020/12/11 09:56:54;;;;;;;6.88;5.45;;;;;;;4.77;65.12;97060.41;5092109;28;20066;-72
2020/12/11 09:59:27;;;;;;;6.95;5.60;;;;;;;4.83;65.09;97046.53;5092136;28;20134;-72
2020/12/11 10:02:06;;;;;;;6.38;4.90;;;;;;;4.79;64.46;97040.88;5093491;28;20052;-72
2020/12/11 10:04:33;;;;;;;6.53;5.10;;;;;;;4.80;64.91;97037.25;5093155;28;20093;-72
2020/12/11 10:07:00;;;;;;;7.20;5.43;;;;;;;4.81;65.05;97032.81;5092110;28;20113;-72
2020/12/11 10:09:27;;;;;;;8.43;4.93;;;;;;;4.76;64.74;97025.56;5092031;28;20056;-72
2020/12/11 10:11:54;;;;;;;5.97;4.65;;;;;;;4.68;65.10;97017.91;5092268;28;20070;-73
2020/12/11 10:14:30;;;;;;;5.60;4.13;;;;;;;4.79;65.16;97017.31;5091435;28;20048;-73
2020/12/11 10:16:58;;;;;;;5.53;4.35;;;;;;;4.88;65.03;97020.56;5093610;28;20059;-72
2020/12/11 10:19:25;;;;;;;4.97;3.90;;;;;;;4.91;65.22;97018.34;5093181;28;20044;-72
2020/12/11 10:21:52;;;;;;;6.22;4.30;;;;;;;5.03;64.70;97002.03;5092166;28;20502;-72
2020/12/11 10:24:20;;;;;;;8.27;5.13;;;;;;;5.12;64.54;96999.00;5093058;28;20432;-72
2020/12/11 10:26:47;;;;;;;5.03;4.53;;;;;;;5.09;64.69;96996.78;5091786;28;20047;-72
2020/12/11 10:29:14;;;;;;;7.45;4.78;;;;;;;4.97;64.28;96988.72;5092806;28;20048;-72
2020/12/11 10:31:42;;;;;;;10.48;5.63;;;;;;;5.02;64.77;96980.28;5091903;28;20048;-71
2020/12/11 10:34:11;;;;;;;7.45;6.03;;;;;;;5.09;64.64;96973.22;5092416;28;20040;-69
2020/12/11 10:36:38;;;;;;;6.15;5.32;;;;;;;5.16;64.77;96991.56;5092790;28;20448;-70
2020/12/11 10:39:06;;;;;;;6.15;5.43;;;;;;;5.26;64.92;96984.09;5092781;28;20036;-69
2020/12/11 10:41:33;;;;;;;6.75;5.03;;;;;;;5.38;64.39;96982.47;5092633;28;20048;-69
2020/12/11 10:44:00;;;;;;;5.93;4.75;;;;;;;5.46;64.59;96976.19;5092230;28;20493;-70
2020/12/11 10:46:27;;;;;;;6.93;5.80;;;;;;;5.50;64.02;96972.16;5092942;28;20060;-70
2020/12/11 10:48:54;;;;;;;4.90;4.35;;;;;;;5.43;63.49;96959.09;5092508;28;20401;-71
2020/12/11 10:51:21;;;;;;;5.70;4.93;;;;;;;5.29;63.92;96954.88;5092847;28;20032;-71
2020/12/11 10:53:48;;;;;;;8.23;5.25;;;;;;;5.25;64.47;96953.66;5092144;28;20047;-70
2020/12/11 10:56:19;;;;;;;6.88;5.22;;;;;;;5.35;64.81;96961.94;5092052;28;20445;-71
2020/12/11 10:58:46;;;;;;;10.35;5.97;;;;;;;5.52;64.92;96948.38;5091781;28;20055;-70
2020/12/11 11:01:14;;;;;;;10.55;6.60;;;;;;;5.68;64.40;96953.19;5093284;28;20031;-71
2020/12/11 11:03:41;;;;;;;6.88;5.00;;;;;;;5.76;63.58;96942.47;5096234;28;20035;-70
2020/12/11 11:06:19;;;;;;;5.45;4.47;;;;;;;5.70;62.72;96933.59;5103165;28;20040;-70
2020/12/11 11:08:53;;;;;;;6.40;4.70;;;;;;;5.79;63.69;96926.28;5102416;28;20048;-70
2020/12/11 11:11:21;;;;;;;5.68;4.32;;;;;;;5.98;62.85;96910.72;5110232;28;20048;-69
2020/12/11 11:14:04;;;;;;;6.10;4.53;;;;;;;6.15;62.27;96896.09;5105541;28;20043;-70
2020/12/11 11:16:46;;;;;;;4.25;3.83;;;;;;;6.31;62.46;96900.03;5104361;28;20036;-71
2020/12/11 11:19:18;;;;;;;5.13;4.45;;;;;;;6.42;61.98;96899.38;5094241;28;20040;-71
2020/12/11 11:21:58;;;;;;;3.78;3.22;;;;;;;6.32;60.83;96889.31;5093841;28;20408;-71
2020/12/11 11:24:44;;;;;;;3.60;3.08;;;;;;;6.22;61.35;96885.59;5092911;28;20051;-71
2020/12/11 11:27:19;;;;;;;6.43;4.53;;;;;;;6.15;61.40;96888.22;5093215;28;20097;-71
2020/12/11 11:29:45;;;;;;;4.10;3.53;;;;;;;6.15;62.04;96885.59;5092691;28;20062;-71
2020/12/11 11:32:12;;;;;;;3.58;2.97;;;;;;;6.16;61.88;96885.41;5091102;28;20516;-71
2020/12/11 11:34:39;;;;;;;3.10;2.63;;;;;;;6.22;61.30;96881.13;5091257;28;20067;-70
2020/12/11 11:37:05;;;;;;;3.28;2.75;;;;;;;6.21;61.54;96876.91;5093103;28;20063;-70